Matoaca, Virginia
Current Conditions -  °F | °C
As of 11:35 AM on Wednesday 22 Oct 2014 (Local Time) from KPTB Reporting Station
Light Rain Light Rain  
Wind Chill: 54°   Ceiling: 1400
Heat Index: 54°   Visibility: 10mi
Dew Point: 51°   Wind: 16mph
Humidity: 90%   Direction: 320°NW
Pressure: 29.94"   Gusts: 22mph
Location:  37.2163°N, 77.4783°W
Report Text: KPTB 221535Z AUTO 32014G19KT 10SM -RA OVC014 12/10 A2994 RMK AO2 T01200104
Loading
Personal Weather Stations






























Interactive Weather Map New forecast layout! Learn more

10-Day Weather Forecast

Advertisements
Track Severe Weather on mobile